首页
METAR-TAF:

METAR-TAF

机场 :

拉巴特-塞拉国际机场

拉巴特, 摩洛哥

纬度: 34-03N, 经度: 006-46W, 海拔: 84米

当前天气观测

该预报发布于36分钟前的12:00 UTC
风速7节,风向北转西北,在西之间变化
温度 25°C
湿度 65%
气压 1012 hPa
能见度10公里或以上
1500米以下无云,无积雨云

METAR: GMME 181200Z 33007KT 280V010 CAVOK 25/18 Q1012 NOSIG

时间: 13:36 (12:36 UTC)

预报

该预报发布于1小时和36分钟前的11:00 UTC
预报有效从18日的 12点(UTC)到 19日的 18点(UTC)
风速10节,风向西北
能见度10公里或以上
1500米以下无云,无积雨云
短暂存在
从 18日的 18点(UTC)到 18日的 24点(UTC)
风速6节,风向西南
能見度: 6000
散云层高于1000英尺
散云层高于2000英尺
短暂存在
从 19日的 00点(UTC)到 19日的 06点(UTC)
风速2节,风向多变
能見度: 3000
轻雾
短暂存在
从 19日的 12点(UTC)到 19日的 18点(UTC)
风速10节,风向西

TAF: GMME 181100Z 1812/1918 32010KT CAVOK TEMPO 1818/1824 22006KT 6000 SCT010 SCT020 TEMPO 1900/1906 VRB02KT 3000 BR TEMPO 1912/1918 26010KT

超过4000个机场的气象观测和天气预报(METAR&TAF报告)。

可查询的气象台以黄色和红色小点在地图上表示。

将鼠标移到小点上方,可查看气象台名称。

然后点击查看天气观测和预报。

如需切换地图:点击带黑十字的绿色按钮放大地图;点击带横线的绿色按钮缩小地图;或者点击绿色箭头查看邻近地区的地图。


METAR-TAF: